Time;durP1;ratioP1;P1;durP2;ratioP2;P2;SDS_P1;SDS_P2;PMS_P1;PMS_P2;Temp;Humidity;BMP_temperature;BMP_pressure;BME280_temperature;BME280_humidity;BME280_pressure;Samples;Min_cycle;Max_cycle;Signal;HPM_P1;HPM_P2
2021/12/13 05:01:14;;;;;;;27.60;11.67;;;5.00;99.70;;;;;;5061652;28;20209;-62
2021/12/13 05:03:43;;;;;;;41.80;12.87;;;5.10;99.70;;;;;;5050808;28;20201;-62
2021/12/13 05:06:14;;;;;;;37.43;13.80;;;5.00;99.70;;;;;;5050309;28;20502;-62
2021/12/13 05:08:41;;;;;;;29.87;12.70;;;5.10;99.70;;;;;;5050988;28;20888;-63
2021/12/13 05:11:10;;;;;;;38.53;12.60;;;5.00;99.70;;;;;;5056261;28;20470;-62
2021/12/13 05:13:40;;;;;;;47.50;13.30;;;5.10;99.70;;;;;;5070476;28;20451;-63
2021/12/13 05:16:10;;;;;;;35.87;12.80;;;5.10;99.70;;;;;;5071783;28;20445;-62
2021/12/13 05:18:45;;;;;;;33.50;13.50;;;5.10;99.70;;;;;;5074635;28;21243;-63
2021/12/13 05:21:16;;;;;;;37.07;13.63;;;5.10;99.70;;;;;;5068129;28;20467;-63
2021/12/13 05:23:49;;;;;;;41.60;14.20;;;5.10;99.70;;;;;;5054662;28;20455;-62
2021/12/13 05:26:30;;;;;;;38.50;13.60;;;5.10;99.70;;;;;;5054519;28;20447;-64
2021/12/13 05:29:00;;;;;;;33.00;12.83;;;5.00;99.70;;;;;;5053582;28;20447;-63
2021/12/13 05:31:28;;;;;;;31.53;12.70;;;5.10;99.70;;;;;;5061336;28;20459;-64
2021/12/13 05:33:59;;;;;;;32.63;13.10;;;5.10;99.70;;;;;;5058687;28;20459;-63
2021/12/13 05:36:29;;;;;;;34.23;13.13;;;5.10;99.70;;;;;;5053084;28;20479;-63
2021/12/13 05:39:06;;;;;;;40.53;13.90;;;5.10;99.70;;;;;;5054159;28;20485;-63
2021/12/13 05:41:33;;;;;;;35.77;13.57;;;5.00;99.70;;;;;;5053623;28;20702;-62
2021/12/13 05:44:02;;;;;;;36.10;13.73;;;5.10;99.70;;;;;;5049276;28;20514;-62
2021/12/13 05:46:35;;;;;;;33.97;13.93;;;5.10;99.70;;;;;;5052944;28;20448;-62
2021/12/13 05:49:06;;;;;;;37.83;13.00;;;5.10;99.70;;;;;;5049704;28;20466;-62
2021/12/13 05:51:36;;;;;;;35.03;13.27;;;5.20;99.70;;;;;;5052587;28;20875;-64
2021/12/13 05:54:06;;;;;;;34.87;13.13;;;5.20;99.70;;;;;;5051583;28;20879;-63
2021/12/13 05:56:38;;;;;;;32.90;13.70;;;5.20;99.70;;;;;;5049821;28;20507;-66
2021/12/13 05:59:15;;;;;;;29.93;12.03;;;5.20;99.70;;;;;;5050052;28;20467;-63
2021/12/13 06:01:59;;;;;;;33.27;13.67;;;5.20;99.70;;;;;;5054982;28;20490;-65
2021/12/13 06:04:34;;;;;;;31.83;12.03;;;5.20;99.70;;;;;;5053455;28;20502;-65
2021/12/13 06:07:02;;;;;;;31.20;12.10;;;5.20;99.70;;;;;;5045983;28;20452;-63
2021/12/13 06:09:52;;;;;;;35.80;12.90;;;5.20;99.70;;;;;;5053062;28;20436;-62
2021/12/13 06:12:32;;;;;;;36.60;13.20;;;5.20;99.70;;;;;;5032310;28;20495;-63
2021/12/13 06:15:20;;;;;;;30.03;11.77;;;5.30;99.70;;;;;;5041371;28;20654;-62
2021/12/13 06:17:52;;;;;;;29.67;12.23;;;5.30;99.70;;;;;;5051735;28;20486;-64
2021/12/13 06:20:26;;;;;;;29.67;11.30;;;5.30;99.70;;;;;;5052808;28;20470;-62
2021/12/13 06:23:02;;;;;;;31.90;12.00;;;5.40;99.70;;;;;;5052525;28;20985;-63
2021/12/13 06:25:29;;;;;;;31.43;11.40;;;5.40;99.70;;;;;;5052754;28;20459;-65
2021/12/13 06:27:59;;;;;;;30.60;10.73;;;5.40;99.70;;;;;;5052877;28;20531;-66
2021/12/13 06:30:30;;;;;;;28.03;10.47;;;5.40;99.70;;;;;;5052600;28;20842;-62
2021/12/13 06:33:00;;;;;;;25.87;10.53;;;5.40;99.70;;;;;;5053158;28;20447;-63
2021/12/13 06:35:45;;;;;;;27.30;9.97;;;5.50;99.70;;;;;;5051919;28;20456;-65
2021/12/13 06:38:38;;;;;;;26.20;10.33;;;5.50;99.70;;;;;;5052899;28;20859;-64
2021/12/13 06:41:14;;;;;;;30.40;10.83;;;5.50;99.70;;;;;;5053030;28;20482;-64
2021/12/13 06:43:44;;;;;;;27.43;10.93;;;5.50;99.70;;;;;;5051357;28;20448;-63
2021/12/13 06:46:28;;;;;;;29.73;10.13;;;5.50;99.70;;;;;;5051361;28;20444;-64
2021/12/13 06:49:00;;;;;;;34.53;11.70;;;5.50;99.70;;;;;;5052136;28;20439;-64
2021/12/13 06:51:42;;;;;;;27.57;11.87;;;5.50;99.70;;;;;;5051971;28;20475;-64
2021/12/13 06:54:13;;;;;;;33.03;11.87;;;5.40;99.70;;;;;;5052112;28;21076;-64
2021/12/13 06:56:42;;;;;;;32.50;13.10;;;5.40;99.70;;;;;;5051531;28;20949;-64
2021/12/13 06:59:15;;;;;;;34.17;13.80;;;5.40;99.70;;;;;;5052717;28;20456;-64
2021/12/13 07:01:42;;;;;;;34.87;13.13;;;5.30;99.70;;;;;;5052676;28;20625;-64
2021/12/13 07:04:13;;;;;;;35.73;14.17;;;5.40;99.70;;;;;;5052705;28;20443;-65
2021/12/13 07:06:41;;;;;;;33.93;12.80;;;5.40;99.70;;;;;;5052252;28;20451;-64
2021/12/13 07:09:12;;;;;;;37.67;14.83;;;5.40;99.70;;;;;;5052731;28;20440;-64
2021/12/13 07:11:44;;;;;;;34.40;14.17;;;5.40;99.70;;;;;;5052421;28;20471;-64
2021/12/13 07:14:14;;;;;;;32.03;13.20;;;5.40;99.70;;;;;;5052674;28;20461;-65
2021/12/13 07:16:42;;;;;;;29.73;12.13;;;5.50;99.70;;;;;;5051985;28;20804;-64
2021/12/13 07:19:18;;;;;;;30.63;12.67;;;5.50;99.70;;;;;;5052453;28;20452;-64
2021/12/13 07:21:51;;;;;;;30.37;12.97;;;5.70;99.70;;;;;;5052254;28;20472;-65
2021/12/13 07:24:26;;;;;;;30.40;11.50;;;5.70;99.70;;;;;;5052560;28;20450;-65
2021/12/13 07:26:55;;;;;;;31.53;12.50;;;5.60;99.70;;;;;;5052030;28;20452;-65
2021/12/13 07:29:24;;;;;;;30.23;11.77;;;5.50;99.70;;;;;;5051524;28;20522;-65
2021/12/13 07:32:06;;;;;;;38.77;14.10;;;5.50;99.70;;;;;;5052102;28;20451;-64
2021/12/13 07:34:46;;;;;;;32.00;12.90;;;5.40;99.70;;;;;;5049878;28;20478;-62
2021/12/13 07:37:14;;;;;;;36.87;13.33;;;5.40;99.70;;;;;;5051325;28;20507;-63
2021/12/13 07:39:43;;;;;;;35.80;13.53;;;5.50;99.70;;;;;;5049710;28;20471;-63
2021/12/13 07:42:13;;;;;;;40.70;14.00;;;5.50;99.70;;;;;;5050136;28;20833;-63
2021/12/13 07:44:42;;;;;;;35.27;14.97;;;5.50;99.70;;;;;;5050936;28;20444;-63
2021/12/13 07:47:13;;;;;;;30.97;11.77;;;5.50;99.70;;;;;;5047418;28;20482;-64
2021/12/13 07:49:43;;;;;;;30.10;11.30;;;5.60;99.70;;;;;;5051542;28;20443;-63
2021/12/13 07:52:22;;;;;;;33.47;14.70;;;5.80;99.70;;;;;;5051342;28;20448;-61
2021/12/13 07:54:50;;;;;;;33.70;13.70;;;5.80;99.70;;;;;;5051252;28;20479;-63
2021/12/13 07:57:22;;;;;;;32.87;13.37;;;5.80;99.70;;;;;;5050018;28;20482;-63
2021/12/13 07:59:50;;;;;;;34.37;13.70;;;5.80;99.70;;;;;;5051270;28;20472;-64
2021/12/13 08:02:23;;;;;;;36.20;13.90;;;5.80;99.70;;;;;;5050001;28;20451;-64
2021/12/13 08:04:55;;;;;;;34.30;13.50;;;5.80;99.70;;;;;;5051052;28;20534;-63
2021/12/13 08:07:23;;;;;;;31.80;13.10;;;5.80;99.70;;;;;;5050441;28;20447;-62
2021/12/13 08:09:57;;;;;;;36.30;14.77;;;5.90;99.70;;;;;;5051115;28;20475;-64
2021/12/13 08:12:26;;;;;;;38.53;15.20;;;5.90;99.70;;;;;;5050880;28;20447;-63
2021/12/13 08:14:57;;;;;;;36.57;14.63;;;5.80;99.70;;;;;;5050850;28;20805;-62
2021/12/13 08:17:26;;;;;;;36.80;14.93;;;5.70;99.70;;;;;;5050944;28;20488;-63
2021/12/13 08:19:56;;;;;;;42.90;15.20;;;5.80;99.70;;;;;;5050834;28;20536;-64
2021/12/13 08:22:28;;;;;;;53.17;15.80;;;5.90;99.70;;;;;;5050750;28;20448;-63
2021/12/13 08:24:59;;;;;;;44.87;16.63;;;5.90;99.70;;;;;;5050680;28;20440;-62
2021/12/13 08:27:31;;;;;;;51.80;16.77;;;5.80;99.70;;;;;;5038807;28;20443;-63
2021/12/13 08:30:08;;;;;;;34.83;13.57;;;5.80;99.70;;;;;;5048575;28;20525;-64
2021/12/13 08:32:36;;;;;;;41.77;15.13;;;5.90;99.70;;;;;;5040645;28;20459;-65
2021/12/13 08:35:05;;;;;;;33.83;12.90;;;6.10;99.70;;;;;;5049946;28;20444;-63
2021/12/13 08:37:35;;;;;;;38.90;13.63;;;6.10;99.70;;;;;;5050746;28;21006;-62
2021/12/13 08:40:09;;;;;;;32.40;11.80;;;6.20;99.70;;;;;;5050173;28;20471;-62
2021/12/13 08:42:41;;;;;;;34.00;12.97;;;6.40;99.70;;;;;;5050793;28;20950;-62
2021/12/13 08:45:16;;;;;;;30.47;12.17;;;6.40;99.70;;;;;;5049990;28;20860;-58
2021/12/13 08:47:46;;;;;;;34.40;11.70;;;6.30;99.70;;;;;;5058601;28;20443;-64
2021/12/13 08:50:18;;;;;;;34.50;12.20;;;6.30;99.70;;;;;;5052271;28;20472;-63
2021/12/13 08:52:46;;;;;;;29.53;11.97;;;6.20;99.70;;;;;;5055003;28;20448;-62
2021/12/13 08:55:26;;;;;;;30.30;13.07;;;6.10;99.70;;;;;;5044572;28;20444;-64
2021/12/13 08:58:10;;;;;;;38.07;13.43;;;6.10;99.70;;;;;;5054705;28;20479;-63
2021/12/13 09:00:51;;;;;;;41.10;13.20;;;6.10;99.70;;;;;;5043659;28;20558;-63
2021/12/13 09:03:27;;;;;;;35.17;13.13;;;6.10;99.70;;;;;;5053133;28;20436;-62
2021/12/13 09:05:59;;;;;;;35.63;13.37;;;6.20;99.70;;;;;;5119414;22;20482;-56
2021/12/13 09:08:31;;;;;;;37.67;14.60;;;6.20;99.70;;;;;;5066792;28;20434;-58
2021/12/13 09:11:03;;;;;;;38.97;14.63;;;6.20;99.70;;;;;;5073243;28;20487;-60
2021/12/13 09:13:42;;;;;;;34.63;13.30;;;6.20;99.70;;;;;;5071625;28;20443;-60
2021/12/13 09:16:12;;;;;;;33.50;12.27;;;6.40;99.70;;;;;;5073014;28;20458;-60
2021/12/13 09:18:40;;;;;;;32.70;12.70;;;6.60;99.70;;;;;;5071576;28;20486;-60
2021/12/13 09:21:09;;;;;;;31.20;12.90;;;6.50;99.70;;;;;;5073355;28;20450;-62
2021/12/13 09:23:41;;;;;;;25.63;10.47;;;6.60;99.70;;;;;;5070404;28;20447;-63
2021/12/13 09:26:14;;;;;;;27.60;11.20;;;6.60;99.70;;;;;;5071874;28;20467;-62
2021/12/13 09:28:46;;;;;;;31.67;10.97;;;6.60;99.70;;;;;;5070871;28;20450;-63
2021/12/13 09:31:17;;;;;;;29.07;11.60;;;6.70;99.70;;;;;;5072827;28;20833;-63
2021/12/13 09:33:47;;;;;;;34.40;12.57;;;6.60;99.70;;;;;;5071022;28;20457;-62
2021/12/13 09:36:17;;;;;;;28.50;11.33;;;6.60;99.70;;;;;;5072220;28;20501;-61
2021/12/13 09:38:51;;;;;;;32.83;12.73;;;6.70;99.70;;;;;;5070127;28;20478;-60
2021/12/13 09:41:30;;;;;;;35.80;13.07;;;6.60;99.70;;;;;;5072512;28;20525;-63
2021/12/13 09:44:01;;;;;;;39.20;15.13;;;6.60;99.70;;;;;;5069995;28;20449;-62
2021/12/13 09:46:33;;;;;;;40.27;15.93;;;6.60;99.70;;;;;;5055990;28;20468;-63
2021/12/13 09:49:06;;;;;;;32.70;12.80;;;6.70;99.70;;;;;;5070941;28;20438;-61
2021/12/13 09:51:37;;;;;;;30.57;12.20;;;6.70;99.70;;;;;;5072048;28;20500;-57
2021/12/13 09:54:07;;;;;;;42.00;16.30;;;6.70;99.70;;;;;;5072479;28;20447;-59
2021/12/13 09:56:42;;;;;;;34.93;14.03;;;6.80;99.70;;;;;;5071534;28;20489;-57
2021/12/13 09:59:16;;;;;;;32.80;12.87;;;6.80;99.70;;;;;;5043887;28;20574;-60
2021/12/13 10:01:43;;;;;;;36.50;15.03;;;6.90;99.70;;;;;;5055955;28;20939;-59
2021/12/13 10:04:14;;;;;;;34.97;13.10;;;6.90;99.70;;;;;;5055306;28;20448;-56
2021/12/13 10:06:45;;;;;;;34.17;12.17;;;6.90;99.70;;;;;;5056158;28;20494;-60
2021/12/13 10:09:16;;;;;;;27.70;10.93;;;6.80;99.70;;;;;;5055186;28;20444;-57
2021/12/13 10:11:51;;;;;;;31.60;11.90;;;6.90;99.70;;;;;;5056433;28;20509;-61
2021/12/13 10:14:20;;;;;;;23.60;9.97;;;7.00;99.70;;;;;;5055280;28;20876;-58
2021/12/13 10:16:49;;;;;;;27.70;11.93;;;7.20;99.70;;;;;;5055926;28;21040;-61
2021/12/13 10:19:22;;;;;;;32.97;12.73;;;7.10;99.70;;;;;;5054528;28;20490;-63
2021/12/13 10:21:50;;;;;;;27.80;11.50;;;7.10;99.70;;;;;;5055792;28;20502;-63
2021/12/13 10:24:24;;;;;;;30.87;12.50;;;7.10;99.70;;;;;;5054533;28;20479;-61
2021/12/13 10:26:54;;;;;;;30.40;12.70;;;7.10;99.70;;;;;;5055371;28;20479;-60
2021/12/13 10:29:23;;;;;;;28.93;12.27;;;7.10;99.70;;;;;;5054043;28;20451;-62
2021/12/13 10:31:54;;;;;;;30.80;13.37;;;7.00;99.70;;;;;;5055694;28;20451;-63
2021/12/13 10:34:24;;;;;;;33.63;13.73;;;7.00;99.70;;;;;;5054604;28;20506;-63
2021/12/13 10:36:54;;;;;;;30.23;12.27;;;7.10;99.70;;;;;;5055387;28;20467;-63
2021/12/13 10:39:24;;;;;;;33.77;13.20;;;7.10;99.70;;;;;;5053286;28;20913;-63
2021/12/13 10:41:57;;;;;;;30.63;12.30;;;7.00;99.70;;;;;;5055494;28;20448;-61
2021/12/13 10:44:28;;;;;;;31.53;12.80;;;7.00;99.70;;;;;;5045185;28;20502;-59
2021/12/13 10:47:03;;;;;;;30.00;12.00;;;7.00;99.70;;;;;;5047802;28;20521;-62
2021/12/13 10:49:34;;;;;;;28.53;11.40;;;7.10;99.70;;;;;;5054287;28;20447;-63
2021/12/13 10:52:05;;;;;;;23.40;10.00;;;7.30;99.70;;;;;;5054328;28;20881;-61
2021/12/13 10:54:34;;;;;;;24.80;10.50;;;7.40;99.70;;;;;;5045418;28;20834;-63
2021/12/13 10:57:07;;;;;;;28.77;11.20;;;7.50;99.70;;;;;;5054937;28;20471;-62
2021/12/13 10:59:36;;;;;;;30.07;10.90;;;7.50;99.70;;;;;;5053722;28;20867;-63
2021/12/13 11:02:08;;;;;;;27.10;11.73;;;7.50;99.70;;;;;;5050712;28;20447;-60
2021/12/13 11:04:39;;;;;;;27.73;10.90;;;7.50;99.70;;;;;;5053603;28;20454;-59
2021/12/13 11:07:09;;;;;;;27.13;11.10;;;7.50;99.70;;;;;;5054775;28;20529;-60
2021/12/13 11:09:40;;;;;;;28.80;12.03;;;7.60;99.70;;;;;;5053661;28;20518;-63
2021/12/13 11:12:11;;;;;;;30.90;13.10;;;7.60;99.70;;;;;;5055228;28;20861;-63
2021/12/13 11:14:42;;;;;;;30.80;12.97;;;7.60;99.70;;;;;;5052363;28;20817;-61
2021/12/13 11:17:13;;;;;;;30.37;12.50;;;7.60;99.70;;;;;;5054631;28;20563;-63
2021/12/13 11:19:43;;;;;;;27.70;11.07;;;7.60;99.70;;;;;;5053521;28;20484;-61
2021/12/13 11:22:13;;;;;;;22.50;10.40;;;7.60;99.70;;;;;;5054877;28;20462;-60
2021/12/13 11:24:45;;;;;;;29.47;11.50;;;7.60;99.70;;;;;;5053458;28;20501;-61
2021/12/13 11:27:16;;;;;;;23.57;10.30;;;7.70;99.70;;;;;;5054255;28;20495;-62
2021/12/13 11:29:44;;;;;;;23.93;10.80;;;7.80;99.70;;;;;;5053061;28;20448;-62
2021/12/13 11:32:44;;;;;;;26.43;11.00;;;7.80;99.70;;;;;;5054615;28;20448;-60
2021/12/13 11:36:09;;;;;;;26.57;9.90;;;7.80;99.70;;;;;;5053869;28;20475;-61
2021/12/13 11:39:16;;;;;;;23.00;9.90;;;7.80;99.70;;;;;;5053643;28;20482;-61
2021/12/13 11:42:04;;;;;;;20.00;9.33;;;7.80;99.70;;;;;;5052504;28;20447;-61
2021/12/13 11:44:52;;;;;;;22.33;9.20;;;7.80;99.70;;;;;;5061376;28;20560;-61
2021/12/13 11:47:47;;;;;;;26.40;10.53;;;8.00;99.70;;;;;;5055588;28;20443;-64
2021/12/13 11:50:58;;;;;;;30.17;11.53;;;7.90;99.70;;;;;;5054199;28;20486;-61
2021/12/13 11:53:59;;;;;;;32.33;12.60;;;7.80;99.70;;;;;;5001231;28;20449;-63
2021/12/13 11:56:55;;;;;;;30.10;12.37;;;7.70;99.70;;;;;;5051073;28;20459;-63
2021/12/13 11:59:55;;;;;;;35.33;12.70;;;7.80;99.70;;;;;;5028356;28;20491;-63
2021/12/13 12:02:35;;;;;;;32.50;12.80;;;7.60;99.70;;;;;;5069334;28;20458;-57
2021/12/13 12:05:39;;;;;;;32.70;12.33;;;7.60;99.70;;;;;;5068320;28;20813;-60
2021/12/13 12:08:36;;;;;;;29.60;12.73;;;7.60;99.70;;;;;;5070211;28;20450;-60
2021/12/13 12:11:36;;;;;;;28.90;11.83;;;7.60;99.70;;;;;;5042899;28;20462;-61
2021/12/13 12:14:06;;;;;;;32.67;12.03;;;7.60;99.70;;;;;;5068934;28;20454;-59
2021/12/13 12:16:38;;;;;;;33.70;12.70;;;7.60;99.70;;;;;;5068950;28;20462;-59
2021/12/13 12:19:08;;;;;;;32.80;13.33;;;7.60;99.70;;;;;;5069454;28;20487;-61
2021/12/13 12:21:46;;;;;;;37.57;13.10;;;7.70;99.70;;;;;;5068902;28;20443;-61
2021/12/13 12:24:16;;;;;;;32.63;13.23;;;7.70;99.70;;;;;;5041150;28;20505;-61
2021/12/13 12:26:47;;;;;;;33.67;13.10;;;7.80;99.70;;;;;;5052946;28;20467;-60
2021/12/13 12:29:23;;;;;;;28.10;12.50;;;7.80;99.70;;;;;;5051416;28;20444;-59
2021/12/13 12:31:59;;;;;;;30.80;12.60;;;7.80;99.70;;;;;;5052657;28;20454;-59
2021/12/13 12:34:26;;;;;;;32.20;11.87;;;7.80;99.70;;;;;;5052114;28;20451;-62
2021/12/13 12:37:42;;;;;;;26.80;11.80;;;7.80;99.70;;;;;;5053311;28;20494;-61
2021/12/13 12:40:23;;;;;;;32.37;13.37;;;7.80;99.70;;;;;;5052487;28;20487;-59
2021/12/13 12:42:53;;;;;;;34.67;13.50;;;7.80;99.70;;;;;;5052189;28;20443;-62
2021/12/13 12:45:27;;;;;;;36.53;13.00;;;7.70;99.70;;;;;;5065383;28;20484;-61
2021/12/13 12:48:24;;;;;;;37.20;15.40;;;7.70;99.70;;;;;;5060089;28;20454;-59
2021/12/13 12:51:05;;;;;;;34.20;13.80;;;7.80;99.70;;;;;;5040956;28;20450;-60
2021/12/13 12:53:41;;;;;;;31.33;12.70;;;7.80;99.70;;;;;;5053224;28;20444;-59
2021/12/13 12:56:11;;;;;;;32.17;14.50;;;7.80;99.70;;;;;;5051558;28;20464;-56
2021/12/13 12:58:45;;;;;;;31.00;12.50;;;7.90;99.70;;;;;;5053286;28;20450;-59
2021/12/13 13:01:17;;;;;;;36.83;14.33;;;8.00;99.70;;;;;;5051970;28;20451;-59
2021/12/13 13:03:45;;;;;;;34.63;13.73;;;8.00;99.70;;;;;;5053227;28;20454;-60
2021/12/13 13:06:15;;;;;;;29.53;13.23;;;8.00;99.70;;;;;;5051282;28;20472;-61
2021/12/13 13:08:45;;;;;;;30.13;12.80;;;7.90;99.70;;;;;;5040475;28;21335;-63
2021/12/13 13:11:35;;;;;;;28.33;11.50;;;7.90;99.70;;;;;;5069050;28;20951;-61
2021/12/13 13:14:10;;;;;;;31.90;13.23;;;7.90;99.70;;;;;;5065226;28;20450;-61
2021/12/13 13:16:42;;;;;;;29.53;12.20;;;7.90;99.70;;;;;;5052075;28;21113;-60
2021/12/13 13:19:22;;;;;;;26.27;11.40;;;8.00;99.70;;;;;;5040352;28;20479;-61
2021/12/13 13:21:49;;;;;;;28.90;11.80;;;8.00;99.70;;;;;;5052997;28;20457;-61
2021/12/13 13:24:16;;;;;;;29.20;12.40;;;8.00;99.70;;;;;;5051768;28;20465;-61
2021/12/13 13:26:45;;;;;;;29.27;12.60;;;8.00;99.70;;;;;;5047042;28;21009;-60
2021/12/13 13:29:16;;;;;;;23.33;9.67;;;8.00;99.70;;;;;;5054369;28;20447;-59
2021/12/13 13:31:48;;;;;;;19.73;9.67;;;8.00;99.70;;;;;;5051408;28;20455;-63
2021/12/13 13:34:20;;;;;;;20.53;8.20;;;8.00;99.70;;;;;;5051771;28;20483;-62
2021/12/13 13:36:50;;;;;;;23.87;9.13;;;8.10;99.70;;;;;;5053854;28;20467;-62
2021/12/13 13:39:23;;;;;;;19.67;9.20;;;8.10;99.70;;;;;;5054988;28;21010;-62
2021/12/13 13:41:52;;;;;;;16.17;7.43;;;8.10;99.70;;;;;;5056278;28;20840;-64
2021/12/13 13:44:22;;;;;;;16.93;8.13;;;8.00;99.70;;;;;;5055248;28;20451;-62
2021/12/13 13:47:00;;;;;;;13.60;6.83;;;8.00;99.70;;;;;;5056238;28;21006;-62
2021/12/13 13:49:28;;;;;;;15.40;7.40;;;8.00;99.70;;;;;;5055080;28;20501;-59
2021/12/13 13:51:55;;;;;;;15.10;7.67;;;8.10;99.70;;;;;;5056419;28;20443;-61
2021/12/13 13:54:22;;;;;;;29.83;13.40;;;8.00;99.70;;;;;;5054718;28;20473;-58
2021/12/13 13:56:49;;;;;;;19.67;9.33;;;8.10;99.70;;;;;;5056183;28;20871;-63
2021/12/13 13:59:19;;;;;;;18.57;8.50;;;8.10;99.70;;;;;;5054713;28;20483;-61
2021/12/13 14:01:51;;;;;;;14.03;7.37;;;8.10;99.70;;;;;;5045887;28;20475;-59
2021/12/13 14:04:22;;;;;;;15.10;7.03;;;8.10;99.70;;;;;;5054994;28;20439;-60
2021/12/13 14:06:54;;;;;;;14.20;6.47;;;8.10;99.70;;;;;;5054691;28;20475;-61
2021/12/13 14:09:24;;;;;;;10.50;5.67;;;8.10;99.70;;;;;;5051928;28;20946;-61
2021/12/13 14:11:54;;;;;;;10.83;4.87;;;8.30;99.70;;;;;;5070450;28;20443;-62
2021/12/13 14:14:23;;;;;;;12.00;5.60;;;8.20;99.70;;;;;;5071576;28;20446;-61
2021/12/13 14:16:53;;;;;;;11.20;5.57;;;8.20;99.70;;;;;;5070175;28;20471;-64
2021/12/13 14:19:27;;;;;;;10.20;5.17;;;8.20;99.70;;;;;;5051046;28;20891;-62
2021/12/13 14:21:56;;;;;;;10.53;4.93;;;8.10;99.70;;;;;;5055886;28;20476;-62
2021/12/13 14:24:32;;;;;;;10.10;5.10;;;8.20;99.70;;;;;;5054213;28;20444;-61
2021/12/13 14:27:13;;;;;;;10.10;5.10;;;8.20;99.70;;;;;;5055626;28;20546;-61
2021/12/13 14:29:40;;;;;;;9.80;5.17;;;8.10;99.70;;;;;;5063692;28;20527;-61
2021/12/13 14:32:09;;;;;;;10.83;5.10;;;8.10;99.70;;;;;;5069736;28;20454;-63
2021/12/13 14:34:37;;;;;;;13.37;5.57;;;8.10;99.70;;;;;;5071504;28;20458;-61
2021/12/13 14:37:08;;;;;;;20.77;8.50;;;8.00;99.70;;;;;;5069990;28;20467;-61
2021/12/13 14:39:38;;;;;;;12.50;6.00;;;8.00;99.70;;;;;;5068103;28;20478;-61
2021/12/13 14:42:09;;;;;;;18.17;7.60;;;8.10;99.70;;;;;;5043780;28;20827;-60
2021/12/13 14:44:38;;;;;;;18.10;7.20;;;8.10;99.70;;;;;;5055729;28;20442;-61
2021/12/13 14:47:08;;;;;;;17.17;7.30;;;8.10;99.70;;;;;;5045973;28;20856;-59
2021/12/13 14:49:42;;;;;;;15.73;7.00;;;8.00;99.70;;;;;;5063016;28;20454;-63
2021/12/13 14:52:16;;;;;;;16.70;8.00;;;8.00;99.70;;;;;;5069726;28;20534;-62
2021/12/13 14:54:45;;;;;;;20.00;8.73;;;8.00;99.70;;;;;;5071085;28;20443;-60
2021/12/13 14:57:17;;;;;;;17.33;8.03;;;8.00;99.70;;;;;;5069347;28;20902;-60
2021/12/13 14:59:49;;;;;;;18.30;8.00;;;7.90;99.70;;;;;;5070999;28;21054;-60
2021/12/13 15:02:19;;;;;;;18.30;8.17;;;7.90;99.70;;;;;;5069795;28;20934;-60
2021/12/13 15:04:47;;;;;;;16.23;7.60;;;8.00;99.70;;;;;;5061134;28;20689;-61
2021/12/13 15:07:18;;;;;;;17.40;8.07;;;8.00;99.70;;;;;;5070471;28;20566;-64
2021/12/13 15:09:47;;;;;;;23.60;8.87;;;7.90;99.70;;;;;;5057415;28;20448;-65
2021/12/13 15:12:17;;;;;;;16.20;7.37;;;7.90;99.70;;;;;;5053415;28;20451;-64
2021/12/13 15:14:48;;;;;;;11.90;5.77;;;7.80;99.70;;;;;;5052418;28;20452;-65
2021/12/13 15:17:18;;;;;;;17.90;7.43;;;7.80;99.70;;;;;;5053960;28;20444;-65
2021/12/13 15:19:49;;;;;;;16.83;8.00;;;7.80;99.70;;;;;;5053285;28;21014;-64
2021/12/13 15:22:17;;;;;;;13.70;6.53;;;7.80;99.70;;;;;;5045281;28;20497;-65
2021/12/13 15:24:44;;;;;;;16.67;7.80;;;7.80;99.70;;;;;;5047277;28;20449;-65
2021/12/13 15:27:15;;;;;;;17.30;7.60;;;7.70;99.70;;;;;;5054004;28;20475;-64
2021/12/13 15:29:42;;;;;;;16.17;7.73;;;7.70;99.70;;;;;;5051761;28;20510;-64
2021/12/13 15:32:11;;;;;;;18.50;7.87;;;7.80;99.70;;;;;;5054059;28;20505;-64
2021/12/13 15:34:41;;;;;;;20.70;8.00;;;7.70;99.70;;;;;;5052083;28;20444;-64
2021/12/13 15:37:27;;;;;;;15.30;8.00;;;7.80;99.70;;;;;;5043030;28;20471;-64
2021/12/13 15:40:08;;;;;;;18.80;8.20;;;7.70;99.70;;;;;;5048774;28;20502;-64
2021/12/13 15:42:35;;;;;;;15.10;7.70;;;7.80;99.70;;;;;;5043132;28;20444;-64
2021/12/13 15:45:17;;;;;;;18.43;8.60;;;7.80;99.70;;;;;;5049567;28;20448;-64
2021/12/13 15:50:43;;;;;;;17.97;8.80;;;7.70;99.70;;;;;;5068364;28;20515;-65
2021/12/13 15:53:13;;;;;;;19.73;9.20;;;7.70;99.70;;;;;;5052152;28;20448;-65
2021/12/13 15:55:43;;;;;;;17.90;9.17;;;7.70;99.70;;;;;;5067609;28;20463;-66
2021/12/13 15:58:26;;;;;;;20.00;10.10;;;7.70;99.70;;;;;;5052379;28;20460;-66
2021/12/13 16:01:02;;;;;;;21.93;10.50;;;7.70;99.70;;;;;;5039913;28;20487;-65
2021/12/13 16:03:29;;;;;;;19.07;9.30;;;7.70;99.70;;;;;;5050412;28;20489;-64
2021/12/13 16:05:58;;;;;;;19.40;9.40;;;7.70;99.70;;;;;;5040341;28;21033;-65
2021/12/13 16:08:51;;;;;;;21.63;9.77;;;7.70;99.70;;;;;;5052945;28;20947;-65
2021/12/13 16:11:22;;;;;;;16.97;8.30;;;7.70;99.70;;;;;;5051582;28;20436;-66
2021/12/13 16:13:50;;;;;;;14.77;7.50;;;7.60;99.70;;;;;;5053792;28;20454;-65
2021/12/13 16:16:22;;;;;;;24.37;10.50;;;7.60;99.70;;;;;;5051233;28;20475;-65
2021/12/13 16:18:50;;;;;;;16.20;7.83;;;7.60;99.70;;;;;;5053588;28;20451;-64
2021/12/13 16:21:23;;;;;;;15.40;7.87;;;7.60;99.70;;;;;;5054837;28;20487;-65
2021/12/13 16:23:58;;;;;;;21.37;9.40;;;7.60;99.70;;;;;;5053606;28;20501;-64
2021/12/13 16:26:36;;;;;;;18.10;8.87;;;7.60;99.70;;;;;;5044942;28;20486;-66
2021/12/13 16:29:08;;;;;;;16.60;7.90;;;7.60;99.70;;;;;;5043758;28;20964;-65
2021/12/13 16:31:35;;;;;;;18.87;8.97;;;7.60;99.70;;;;;;5059080;28;20440;-64
2021/12/13 16:34:09;;;;;;;19.80;9.17;;;7.60;99.70;;;;;;5052059;28;20451;-64
2021/12/13 16:36:39;;;;;;;24.73;11.17;;;7.60;99.70;;;;;;5059161;28;20467;-65
2021/12/13 16:39:11;;;;;;;17.67;9.23;;;7.60;99.70;;;;;;5045172;28;20452;-65
2021/12/13 16:41:39;;;;;;;18.20;8.87;;;7.70;99.70;;;;;;5046564;28;20530;-65
2021/12/13 16:44:09;;;;;;;24.07;10.90;;;7.60;99.70;;;;;;5047409;28;20455;-65
2021/12/13 16:46:37;;;;;;;25.70;11.90;;;7.60;99.70;;;;;;5041855;28;21003;-66
2021/12/13 16:49:08;;;;;;;22.20;10.73;;;7.60;99.70;;;;;;5045099;28;20447;-65
2021/12/13 16:51:37;;;;;;;22.37;9.60;;;7.60;99.70;;;;;;5049419;28;20450;-65
2021/12/13 16:54:08;;;;;;;22.40;9.60;;;7.60;99.70;;;;;;5049794;28;20663;-65
2021/12/13 16:56:36;;;;;;;19.00;8.03;;;7.70;99.70;;;;;;5045442;28;20847;-65
2021/12/13 16:59:04;;;;;;;18.57;8.80;;;7.70;99.70;;;;;;5054733;28;20501;-65
2021/12/13 17:01:36;;;;;;;20.77;9.87;;;7.70;99.70;;;;;;5052394;28;20479;-67
2021/12/13 17:04:07;;;;;;;23.23;10.43;;;7.70;99.70;;;;;;5043594;28;20502;-65
2021/12/13 17:06:41;;;;;;;19.53;9.47;;;7.70;99.70;;;;;;5055534;28;20472;-64
2021/12/13 17:09:09;;;;;;;19.40;9.40;;;7.60;99.70;;;;;;5052368;28;20455;-65
2021/12/13 17:11:38;;;;;;;22.23;9.67;;;7.60;99.70;;;;;;5054921;28;20973;-65
2021/12/13 17:14:17;;;;;;;19.23;8.70;;;7.60;99.70;;;;;;5055957;28;20450;-65
2021/12/13 17:16:53;;;;;;;30.37;12.73;;;7.60;99.70;;;;;;5055640;28;20471;-66
2021/12/13 17:19:22;;;;;;;23.03;10.63;;;7.60;99.70;;;;;;5055178;28;20451;-66
2021/12/13 17:21:51;;;;;;;26.40;12.33;;;7.60;99.70;;;;;;5057029;28;20483;-64
2021/12/13 17:24:27;;;;;;;24.67;10.80;;;7.70;99.70;;;;;;5054784;28;20451;-64
2021/12/13 17:26:56;;;;;;;35.20;15.47;;;7.70;99.70;;;;;;5055601;28;20509;-64
2021/12/13 17:29:26;;;;;;;31.03;13.23;;;7.60;99.70;;;;;;5061611;28;20452;-65
2021/12/13 17:31:58;;;;;;;25.90;12.30;;;7.60;99.70;;;;;;5056841;28;20442;-65
2021/12/13 17:34:54;;;;;;;27.73;11.13;;;7.60;99.70;;;;;;5060473;28;20449;-66
2021/12/13 17:37:41;;;;;;;25.67;11.23;;;7.60;99.70;;;;;;5051067;28;20508;-64
2021/12/13 17:40:17;;;;;;;40.83;15.80;;;7.60;99.70;;;;;;5052593;28;20452;-65
2021/12/13 17:42:47;;;;;;;97.23;34.70;;;7.60;99.70;;;;;;5061279;28;20499;-65
2021/12/13 17:45:22;;;;;;;50.20;18.87;;;7.60;99.70;;;;;;5053379;28;20498;-64
2021/12/13 17:47:53;;;;;;;37.10;15.83;;;7.60;99.70;;;;;;5051390;28;20810;-62
2021/12/13 17:50:23;;;;;;;37.33;16.37;;;7.70;99.70;;;;;;5055333;28;20968;-64
2021/12/13 17:52:53;;;;;;;39.50;15.83;;;7.60;99.70;;;;;;5057030;28;20452;-64
2021/12/13 17:55:23;;;;;;;45.03;17.40;;;7.60;99.70;;;;;;5053273;28;20479;-66
2021/12/13 17:57:53;;;;;;;28.60;12.30;;;7.60;99.70;;;;;;5051154;28;20440;-65
2021/12/13 18:00:37;;;;;;;25.10;10.30;;;7.60;99.70;;;;;;5054874;28;20512;-65
2021/12/13 18:03:33;;;;;;;29.60;11.50;;;7.60;99.70;;;;;;5064653;28;20469;-64
2021/12/13 18:06:24;;;;;;;33.43;12.10;;;7.60;99.70;;;;;;5062243;28;21157;-65
2021/12/13 18:09:25;;;;;;;27.50;11.33;;;7.60;99.70;;;;;;5059967;28;20436;-66
2021/12/13 18:12:16;;;;;;;26.10;11.47;;;7.70;99.70;;;;;;5065013;28;20452;-64
2021/12/13 18:14:55;;;;;;;24.93;10.57;;;7.70;99.70;;;;;;5060811;28;20488;-65
2021/12/13 18:17:33;;;;;;;22.00;10.40;;;7.60;99.70;;;;;;5050810;28;20460;-66